createdAt,value
2022-08-21T00:01:16.653Z,101075.53
2022-08-21T00:03:46.351Z,101055.81
2022-08-21T00:06:16.505Z,101083.31
2022-08-21T00:08:46.654Z,101082.44
2022-08-21T00:11:16.899Z,101083.28
2022-08-21T00:13:49.557Z,101081.56
2022-08-21T00:16:19.242Z,101073.78
2022-08-21T00:18:49.154Z,101051.50
2022-08-21T00:21:19.027Z,101080.66
2022-08-21T00:23:48.702Z,101072.94
2022-08-21T00:26:18.363Z,101082.47
2022-08-21T00:28:50.593Z,101069.59
2022-08-21T00:31:21.592Z,101080.81
2022-08-21T00:33:51.371Z,101075.66
2022-08-21T00:36:21.237Z,101074.00
2022-08-21T00:38:50.973Z,101083.44
2022-08-21T00:41:36.724Z,101080.06
2022-08-21T00:44:13.073Z,101074.00
2022-08-21T00:46:44.293Z,101074.00
2022-08-21T00:49:16.126Z,101076.59
2022-08-21T00:51:51.175Z,101076.59
2022-08-21T00:54:22.261Z,101064.53
2022-08-21T00:56:55.618Z,101079.16
2022-08-21T00:59:36.217Z,101078.31
2022-08-21T01:02:08.274Z,101074.88
2022-08-21T01:04:38.548Z,101076.59
2022-08-21T01:07:09.230Z,101071.44
2022-08-21T01:09:39.815Z,101073.16
2022-08-21T01:12:10.237Z,101080.03
2022-08-21T01:14:44.854Z,101076.63
2022-08-21T01:17:16.590Z,101084.34
2022-08-21T01:19:46.978Z,101085.19
2022-08-21T01:22:20.460Z,101081.75
2022-08-21T01:24:51.113Z,101078.31
2022-08-21T01:27:20.824Z,101080.03
2022-08-21T01:29:58.933Z,101069.72
2022-08-21T01:32:28.705Z,101077.47
2022-08-21T01:34:58.410Z,101071.47
2022-08-21T01:37:30.680Z,101077.50
2022-08-21T01:40:00.441Z,101080.97
2022-08-21T01:42:30.391Z,101083.53
2022-08-21T01:45:00.184Z,101074.94
2022-08-21T01:47:30.206Z,101068.09
2022-08-21T01:49:59.917Z,101067.22
2022-08-21T01:52:32.737Z,101065.50
2022-08-21T01:55:02.447Z,101066.38
2022-08-21T01:57:32.203Z,101052.63
2022-08-21T02:00:02.184Z,101056.91
2022-08-21T02:02:41.941Z,101030.28
2022-08-21T02:05:14.244Z,101052.59
2022-08-21T02:07:49.073Z,101057.78
2022-08-21T02:10:22.393Z,101053.44
2022-08-21T02:12:52.238Z,101041.44
2022-08-21T02:15:22.412Z,101045.75
2022-08-21T02:17:55.558Z,101045.72
2022-08-21T02:20:28.645Z,101032.84
2022-08-21T02:23:01.327Z,101038.84
2022-08-21T02:25:32.041Z,101038.00
2022-08-21T02:28:05.705Z,101023.41
2022-08-21T02:30:38.960Z,101038.03
2022-08-21T02:33:11.938Z,101033.69
2022-08-21T02:35:43.330Z,101037.16
2022-08-21T02:38:18.016Z,101039.72
2022-08-21T02:40:50.883Z,101044.88
2022-08-21T02:43:22.135Z,101046.59
2022-08-21T02:45:53.778Z,101040.56
2022-08-21T02:48:26.627Z,101041.44
2022-08-21T02:50:59.354Z,101031.97
2022-08-21T02:53:32.702Z,101028.53
2022-08-21T02:56:05.855Z,101037.13
2022-08-21T02:58:39.567Z,101033.69
2022-08-21T03:01:10.686Z,101025.09
2022-08-21T03:03:42.051Z,101031.97
2022-08-21T03:06:13.994Z,101032.81
2022-08-21T03:08:47.874Z,101025.97
2022-08-21T03:11:21.511Z,101030.25
2022-08-21T03:13:51.182Z,101022.53
2022-08-21T03:16:21.733Z,101031.13
2022-08-21T03:18:51.583Z,101025.13
2022-08-21T03:21:21.246Z,101029.41
2022-08-21T03:23:55.154Z,101019.06
2022-08-21T03:26:25.309Z,101021.66
2022-08-21T03:28:55.100Z,101018.22
2022-08-21T03:31:24.753Z,101024.22
2022-08-21T03:33:56.142Z,101014.78
2022-08-21T03:36:25.929Z,101025.97
2022-08-21T03:38:58.222Z,101021.63
2022-08-21T03:41:27.850Z,101020.78
2022-08-21T03:43:57.546Z,101017.34
2022-08-21T03:46:27.224Z,101021.59
2022-08-21T03:48:57.080Z,101016.47
2022-08-21T03:51:26.755Z,101024.19
2022-08-21T03:53:59.025Z,101024.19
2022-08-21T03:56:29.097Z,101024.16
2022-08-21T03:58:58.760Z,101023.31
2022-08-21T04:01:28.574Z,101019.84
2022-08-21T04:03:58.430Z,101027.59
2022-08-21T04:06:28.574Z,101024.16
2022-08-21T04:09:00.828Z,101028.50
2022-08-21T04:11:30.458Z,101028.50
2022-08-21T04:14:00.109Z,101035.38
2022-08-21T04:16:29.760Z,101042.28
2022-08-21T04:18:59.368Z,101043.13
2022-08-21T04:21:29.046Z,101051.75
2022-08-21T04:24:01.728Z,101056.03
2022-08-21T04:26:32.150Z,101062.06
2022-08-21T04:29:01.897Z,101067.25
2022-08-21T04:31:31.836Z,101066.38
2022-08-21T04:34:01.539Z,101066.34
2022-08-21T04:36:31.394Z,101061.19
2022-08-21T04:39:03.881Z,101062.91
2022-08-21T04:41:34.741Z,101064.66
2022-08-21T04:44:04.369Z,101070.66
2022-08-21T04:46:34.130Z,101069.78
2022-08-21T04:49:03.837Z,101068.03
2022-08-21T04:51:36.858Z,101071.47
2022-08-21T04:54:15.624Z,101078.38
2022-08-21T04:56:47.952Z,101072.31
2022-08-21T04:59:21.643Z,101081.78
2022-08-21T05:01:52.884Z,101058.59
2022-08-21T05:04:26.997Z,101078.34
2022-08-21T05:06:58.490Z,101069.72
2022-08-21T05:09:31.786Z,101081.75
2022-08-21T05:12:01.618Z,101084.31
2022-08-21T05:14:31.294Z,101086.88
2022-08-21T05:17:00.994Z,101087.72
2022-08-21T05:19:30.677Z,101079.97
2022-08-21T05:22:01.838Z,101079.16
2022-08-21T05:24:34.244Z,101081.69
2022-08-21T05:27:04.638Z,101085.16
2022-08-21T05:29:34.297Z,101087.72
2022-08-21T05:32:04.241Z,101092.84
2022-08-21T05:34:33.955Z,101091.91
2022-08-21T05:37:07.520Z,101091.88
2022-08-21T05:40:20.238Z,101089.28
2022-08-21T05:42:29.732Z,101106.47
2022-08-21T05:44:59.353Z,101094.41
2022-08-21T05:47:29.613Z,101092.69
2022-08-21T05:49:59.342Z,101088.34
2022-08-21T05:52:29.054Z,101096.91
2022-08-21T05:55:01.351Z,101097.75
2022-08-21T05:57:31.206Z,101097.63
2022-08-21T06:00:00.860Z,101100.00
2022-08-21T06:02:31.750Z,101102.38
2022-08-21T06:05:01.377Z,101096.97
2022-08-21T06:07:31.081Z,101095.06
2022-08-21T06:10:03.386Z,101094.06
2022-08-21T06:12:33.053Z,101092.19
2022-08-21T06:15:02.684Z,101091.88
2022-08-21T06:17:32.317Z,101095.09
2022-08-21T06:20:01.965Z,101093.81
2022-08-21T06:22:32.230Z,101098.94
2022-08-21T06:25:04.472Z,101094.56
2022-08-21T06:27:34.200Z,101095.47
2022-08-21T06:30:03.846Z,101092.91
2022-08-21T06:32:33.526Z,101093.56
2022-08-21T06:35:03.248Z,101096.66
2022-08-21T06:37:33.068Z,101093.69
2022-08-21T06:40:05.723Z,101092.63
2022-08-21T06:42:42.942Z,101095.00
2022-08-21T06:45:14.048Z,101096.25
2022-08-21T06:47:43.744Z,101079.91
2022-08-21T06:50:14.038Z,101082.28
2022-08-21T06:52:43.865Z,101089.84
2022-08-21T06:55:22.363Z,101090.41
2022-08-21T06:57:53.414Z,101045.72
2022-08-21T07:00:23.502Z,101083.94
2022-08-21T07:02:53.275Z,101088.34
2022-08-21T07:05:23.166Z,101097.56
2022-08-21T07:07:52.952Z,101082.78
2022-08-21T07:10:26.206Z,101084.56
2022-08-21T07:13:00.679Z,101074.03
2022-08-21T07:15:32.335Z,101082.44
2022-08-21T07:18:02.463Z,101085.84
2022-08-21T07:20:33.650Z,101079.84
2022-08-21T07:23:06.081Z,101078.47
2022-08-21T07:25:38.845Z,101085.44
2022-08-21T07:28:08.589Z,101080.94
2022-08-21T07:30:38.253Z,101079.16
2022-08-21T07:33:08.338Z,101071.25
2022-08-21T07:35:38.016Z,101067.69
2022-08-21T07:38:07.841Z,101066.66
2022-08-21T07:40:40.178Z,101055.47
2022-08-21T07:43:10.095Z,101064.59
2022-08-21T07:45:39.805Z,101070.44
2022-08-21T07:48:09.560Z,101060.66
2022-08-21T07:50:40.268Z,101049.50
2022-08-21T07:53:09.995Z,101049.38
2022-08-21T07:55:42.479Z,101057.97
2022-08-21T07:58:12.390Z,101058.91
2022-08-21T08:00:42.857Z,101059.53
2022-08-21T08:03:12.801Z,101056.06
2022-08-21T08:05:42.550Z,101058.38
2022-08-21T08:08:12.691Z,101056.53
2022-08-21T08:10:46.073Z,101065.09
2022-08-21T08:13:15.713Z,101053.19
2022-08-21T08:15:45.453Z,101052.38
2022-08-21T08:18:16.176Z,101051.34
2022-08-21T08:20:46.962Z,101058.97
2022-08-21T08:23:18.386Z,101051.78
2022-08-21T08:25:50.685Z,101057.66
2022-08-21T08:28:22.880Z,101053.25
2022-08-21T08:30:53.433Z,101055.59
2022-08-21T08:33:25.202Z,101050.34
2022-08-21T08:35:56.463Z,101050.38
2022-08-21T08:38:28.447Z,101052.88
2022-08-21T08:41:05.450Z,101052.03
2022-08-21T08:43:38.025Z,101040.72
2022-08-21T08:46:15.430Z,101045.06
2022-08-21T08:48:55.382Z,101036.00
2022-08-21T08:51:29.263Z,101029.19
2022-08-21T08:54:05.350Z,101032.44
2022-08-21T08:56:38.085Z,101041.91
2022-08-21T08:59:15.230Z,101041.59
2022-08-21T09:01:45.966Z,101036.97
2022-08-21T09:04:21.902Z,101041.94
2022-08-21T09:07:02.132Z,101040.19
2022-08-21T09:09:45.342Z,101021.13
2022-08-21T09:12:22.508Z,101036.66
2022-08-21T09:15:06.045Z,101031.09
2022-08-21T09:17:46.023Z,101038.44
2022-08-21T09:20:26.472Z,101036.25
2022-08-21T09:23:11.640Z,101032.59
2022-08-21T09:25:49.552Z,101022.38
2022-08-21T09:28:21.905Z,101024.84
2022-08-21T09:30:52.684Z,101031.13
2022-08-21T09:33:24.010Z,101021.78
2022-08-21T09:35:58.737Z,101026.56
2022-08-21T09:38:32.739Z,101020.84
2022-08-21T09:41:08.015Z,101019.91
2022-08-21T09:43:41.287Z,101030.81
2022-08-21T09:46:13.834Z,101017.53
2022-08-21T09:48:47.412Z,100983.25
2022-08-21T09:51:20.344Z,101022.00
2022-08-21T09:53:53.156Z,101019.78
2022-08-21T09:56:42.445Z,101017.31
2022-08-21T09:59:36.352Z,101013.25
2022-08-21T10:02:25.399Z,101015.78
2022-08-21T10:04:57.222Z,101017.63
2022-08-21T10:07:29.888Z,101010.31
2022-08-21T10:10:09.852Z,101006.31
2022-08-21T10:12:48.886Z,101000.81
2022-08-21T10:15:28.042Z,101002.00
2022-08-21T10:18:07.669Z,100998.47
2022-08-21T10:20:44.460Z,100982.53
2022-08-21T10:23:32.116Z,100991.50
2022-08-21T10:26:14.129Z,100974.16
2022-08-21T10:29:00.014Z,100978.00
2022-08-21T10:31:40.991Z,100976.94
2022-08-21T10:34:27.513Z,100969.97
2022-08-21T10:37:16.550Z,100984.78
2022-08-21T10:39:57.201Z,100978.66
2022-08-21T10:42:36.990Z,100986.78
2022-08-21T10:45:17.650Z,100976.47
2022-08-21T10:47:58.006Z,100991.75
2022-08-21T10:50:34.957Z,100980.25
2022-08-21T10:53:19.352Z,100977.31
2022-08-21T10:55:56.009Z,100971.69
2022-08-21T10:58:31.006Z,100965.00
2022-08-21T11:01:08.494Z,100968.88
2022-08-21T11:03:45.239Z,100969.44
2022-08-21T11:06:18.363Z,100981.97
2022-08-21T11:08:53.265Z,100926.44
2022-08-21T11:11:28.143Z,100975.28
2022-08-21T11:14:08.173Z,100964.91
2022-08-21T11:16:45.674Z,100968.91
2022-08-21T11:19:25.019Z,100929.03
2022-08-21T11:22:01.393Z,100971.31
2022-08-21T11:24:35.815Z,100962.81
2022-08-21T11:27:13.624Z,100958.25
2022-08-21T11:29:47.578Z,100967.53
2022-08-21T11:32:47.288Z,100950.53
2022-08-21T11:35:26.441Z,100946.78
2022-08-21T11:38:16.188Z,100965.50
2022-08-21T11:40:58.296Z,100959.38
2022-08-21T11:43:40.206Z,100973.25
2022-08-21T11:46:21.321Z,100970.91
2022-08-21T11:49:10.127Z,100968.81
2022-08-21T11:51:48.158Z,100967.03
2022-08-21T11:54:27.782Z,100968.97
2022-08-21T11:57:02.550Z,100969.31
2022-08-21T11:59:41.019Z,100953.94
2022-08-21T12:02:16.217Z,100969.03
2022-08-21T12:04:50.142Z,100960.38
2022-08-21T12:07:35.088Z,100962.38
2022-08-21T12:10:07.993Z,100976.22
2022-08-21T12:12:39.775Z,100968.44
2022-08-21T12:15:31.267Z,100953.44
2022-08-21T12:18:05.361Z,100953.47
2022-08-21T12:20:50.571Z,100974.50
2022-08-21T12:23:32.926Z,100968.34
2022-08-21T12:26:17.896Z,100969.34
2022-08-21T12:28:47.685Z,100966.44
2022-08-21T12:31:26.929Z,100959.19
2022-08-21T12:34:04.284Z,100942.47
2022-08-21T12:36:45.396Z,100946.06
2022-08-21T12:39:22.933Z,100948.06
2022-08-21T12:42:01.649Z,100945.34
2022-08-21T12:44:38.229Z,100944.72
2022-08-21T12:47:16.988Z,100933.81
2022-08-21T12:49:55.701Z,100941.72
2022-08-21T12:52:28.270Z,100931.69
2022-08-21T12:55:00.573Z,100945.44
2022-08-21T12:57:31.872Z,100936.78
2022-08-21T13:00:04.270Z,100940.75
2022-08-21T13:02:36.635Z,100928.28
2022-08-21T13:05:08.389Z,100922.34
2022-08-21T13:07:40.506Z,100879.84
2022-08-21T13:10:27.712Z,100920.38
2022-08-21T13:12:59.896Z,100933.97
2022-08-21T13:15:33.634Z,100922.31
2022-08-21T13:18:05.507Z,100930.34
2022-08-21T13:20:39.216Z,100917.16
2022-08-21T13:23:26.675Z,100919.66
2022-08-21T13:25:59.803Z,100934.63
2022-08-21T13:28:38.692Z,100924.16
2022-08-21T13:31:13.983Z,100932.69
2022-08-21T13:33:48.036Z,100930.56
2022-08-21T13:36:22.943Z,100933.94
2022-08-21T13:38:54.530Z,100923.97
2022-08-21T13:41:32.145Z,100918.03
2022-08-21T13:44:05.738Z,100909.75
2022-08-21T13:46:39.881Z,100923.34
2022-08-21T13:49:10.887Z,100910.34
2022-08-21T13:51:41.236Z,100918.50
2022-08-21T13:54:19.662Z,100932.41
2022-08-21T13:56:52.247Z,100913.91
2022-08-21T13:59:31.145Z,100928.72
2022-08-21T14:02:05.318Z,100908.38
2022-08-21T14:04:39.139Z,100924.63
2022-08-21T14:07:20.096Z,100910.91
2022-08-21T14:09:51.333Z,100928.53
2022-08-21T14:12:31.847Z,100914.31
2022-08-21T14:15:08.611Z,100919.88
2022-08-21T14:17:45.065Z,100916.75
2022-08-21T14:20:31.483Z,100900.78
2022-08-21T14:23:01.287Z,100900.16
2022-08-21T14:25:34.230Z,100925.59
2022-08-21T14:28:22.143Z,100920.63
2022-08-21T14:30:58.450Z,100923.81
2022-08-21T14:33:31.563Z,100917.22
2022-08-21T14:36:02.965Z,100919.22
2022-08-21T14:38:33.261Z,100924.75
2022-08-21T14:41:16.809Z,100933.53
2022-08-21T14:44:04.044Z,100887.91
2022-08-21T14:46:45.837Z,100911.75
2022-08-21T14:49:27.447Z,100916.88
2022-08-21T14:51:58.720Z,100920.91
2022-08-21T14:54:31.069Z,100915.25
2022-08-21T14:57:04.285Z,100921.47
2022-08-21T14:59:39.120Z,100915.63
2022-08-21T15:02:09.687Z,100898.47
2022-08-21T15:04:39.514Z,100915.69
2022-08-21T15:07:09.322Z,100905.69
2022-08-21T15:09:38.927Z,100915.13
2022-08-21T15:12:10.932Z,100919.66
2022-08-21T15:14:45.779Z,100913.69
2022-08-21T15:17:15.801Z,100911.41
2022-08-21T15:19:45.412Z,100905.38
2022-08-21T15:22:18.756Z,100909.13
2022-08-21T15:24:48.994Z,100893.44
2022-08-21T15:27:20.877Z,100901.22
2022-08-21T15:29:54.421Z,100905.59
2022-08-21T15:32:27.329Z,100891.66
2022-08-21T15:34:58.464Z,100897.34
2022-08-21T15:37:28.838Z,100886.09
2022-08-21T15:39:58.686Z,100899.97
2022-08-21T15:42:30.476Z,100900.59
2022-08-21T15:45:02.943Z,100906.84
2022-08-21T15:47:35.987Z,100892.41
2022-08-21T15:50:10.512Z,100897.25
2022-08-21T15:52:40.243Z,100900.94
2022-08-21T15:55:11.419Z,100899.13
2022-08-21T15:57:57.141Z,100902.22
2022-08-21T16:00:35.130Z,100897.81
2022-08-21T16:03:08.269Z,100897.75
2022-08-21T16:05:38.882Z,100881.66
2022-08-21T16:08:08.542Z,100895.81
2022-08-21T16:10:39.191Z,100901.69
2022-08-21T16:13:15.183Z,100897.50
2022-08-21T16:15:47.524Z,100890.81
2022-08-21T16:18:17.636Z,100900.03
2022-08-21T16:20:52.736Z,100894.91
2022-08-21T16:23:22.412Z,100887.72
2022-08-21T16:25:53.192Z,100899.47
2022-08-21T16:28:25.011Z,100891.25
2022-08-21T16:30:57.188Z,100887.44
2022-08-21T16:33:33.763Z,100893.91
2022-08-21T16:36:05.961Z,100890.41
2022-08-21T16:38:38.072Z,100909.88
2022-08-21T16:41:16.704Z,100902.72
2022-08-21T16:43:47.416Z,100910.16
2022-08-21T16:46:24.809Z,100900.97
2022-08-21T16:48:54.640Z,100887.09
2022-08-21T16:51:25.307Z,100896.34
2022-08-21T16:53:55.066Z,100883.75
2022-08-21T16:56:24.806Z,100899.34
2022-08-21T16:58:56.763Z,100899.22
2022-08-21T17:01:32.553Z,100897.56
2022-08-21T17:04:03.878Z,100878.72
2022-08-21T17:06:33.937Z,100884.41
2022-08-21T17:09:03.998Z,100898.28
2022-08-21T17:11:37.043Z,100893.34
2022-08-21T17:14:10.306Z,100901.19
2022-08-21T17:16:44.515Z,100901.19
2022-08-21T17:19:14.654Z,100896.06
2022-08-21T17:21:46.343Z,100905.47
2022-08-21T17:24:16.520Z,100895.50
2022-08-21T17:26:47.183Z,100918.94
2022-08-21T17:29:18.918Z,100910.28
2022-08-21T17:31:52.247Z,100918.75
2022-08-21T17:34:23.022Z,100918.94
2022-08-21T17:36:56.934Z,100908.63
2022-08-21T17:39:26.853Z,100921.00
2022-08-21T17:41:58.301Z,100908.25
2022-08-21T17:44:30.041Z,100918.56
2022-08-21T17:47:02.396Z,100904.19
2022-08-21T17:49:32.035Z,100895.81
2022-08-21T17:52:02.969Z,100914.56
2022-08-21T17:54:32.764Z,100906.28
2022-08-21T17:57:02.663Z,100896.06
2022-08-21T17:59:32.349Z,100899.81
2022-08-21T18:02:12.576Z,100898.22
2022-08-21T18:04:50.374Z,100911.47
2022-08-21T18:07:32.032Z,100903.19
2022-08-21T18:10:02.990Z,100921.16
2022-08-21T18:12:33.521Z,100927.47
2022-08-21T18:15:04.743Z,100934.66
2022-08-21T18:17:38.186Z,100880.34
2022-08-21T18:20:12.194Z,100931.81
2022-08-21T18:22:42.879Z,100900.72
2022-08-21T18:25:13.519Z,100925.81
2022-08-21T18:27:45.831Z,100905.63
2022-08-21T18:30:19.080Z,100942.69
2022-08-21T18:32:51.533Z,100940.25
2022-08-21T18:35:21.343Z,100937.34
2022-08-21T18:37:50.913Z,100937.50
2022-08-21T18:40:21.260Z,100948.28
2022-08-21T18:42:55.863Z,100949.47
2022-08-21T18:45:26.174Z,100952.22
2022-08-21T18:48:03.616Z,100960.03
2022-08-21T18:50:33.371Z,100960.44
2022-08-21T18:53:07.936Z,100952.81
2022-08-21T18:55:53.706Z,100958.47
2022-08-21T18:58:28.811Z,100954.25
2022-08-21T19:00:59.118Z,100956.09
2022-08-21T19:03:31.370Z,100969.81
2022-08-21T19:06:01.249Z,100970.25
2022-08-21T19:08:32.495Z,100968.94
2022-08-21T19:11:03.269Z,100977.63
2022-08-21T19:13:34.346Z,100978.81
2022-08-21T19:16:05.809Z,100962.72
2022-08-21T19:18:44.073Z,100973.97
2022-08-21T19:21:14.131Z,100976.91
2022-08-21T19:23:52.602Z,100955.78
2022-08-21T19:26:24.659Z,100980.75
2022-08-21T19:28:59.749Z,100981.66
2022-08-21T19:31:34.000Z,100965.63
2022-08-21T19:34:09.673Z,100954.63
2022-08-21T19:36:42.252Z,100974.66
2022-08-21T19:39:12.624Z,100942.50
2022-08-21T19:41:45.577Z,100968.19
2022-08-21T19:44:20.578Z,100941.88
2022-08-21T19:46:52.673Z,100990.91
2022-08-21T19:49:27.525Z,100976.19
2022-08-21T19:51:58.359Z,100977.47
2022-08-21T19:54:31.184Z,100977.69
2022-08-21T19:57:04.674Z,100979.53
2022-08-21T19:59:37.683Z,100987.50
2022-08-21T20:02:10.204Z,100987.88
2022-08-21T20:07:33.288Z,100968.38
2022-08-21T20:10:03.548Z,100989.94
2022-08-21T20:12:33.568Z,100984.91
2022-08-21T20:15:03.496Z,100984.91
2022-08-21T20:17:38.799Z,100971.28
2022-08-21T20:20:11.960Z,100994.53
2022-08-21T20:22:41.998Z,100999.16
2022-08-21T20:25:12.882Z,100957.31
2022-08-21T20:27:44.667Z,100997.72
2022-08-21T20:30:22.637Z,100995.56
2022-08-21T20:32:52.673Z,101005.94
2022-08-21T20:35:25.920Z,101004.22
2022-08-21T20:37:58.718Z,100963.88
2022-08-21T20:40:33.010Z,101005.03
2022-08-21T20:43:21.546Z,101013.78
2022-08-21T20:45:52.106Z,101010.31
2022-08-21T20:48:28.055Z,101006.81
2022-08-21T20:51:07.915Z,101011.25
2022-08-21T20:53:44.495Z,101005.41
2022-08-21T20:56:23.038Z,101004.59
2022-08-21T20:58:57.886Z,101011.56
2022-08-21T21:01:34.199Z,101009.13
2022-08-21T21:04:09.979Z,101022.06
2022-08-21T21:07:02.418Z,101010.22
2022-08-21T21:09:40.291Z,101026.47
2022-08-21T21:12:18.715Z,101020.53
2022-08-21T21:15:01.587Z,101024.78
2022-08-21T21:17:40.214Z,101029.94
2022-08-21T21:20:14.416Z,101030.81
2022-08-21T21:22:51.838Z,101027.44
2022-08-21T21:25:26.898Z,101029.25
2022-08-21T21:28:13.591Z,101031.03
2022-08-21T21:30:46.491Z,101024.22
2022-08-21T21:33:19.267Z,101033.66
2022-08-21T21:35:52.291Z,101037.09
2022-08-21T21:38:30.635Z,101035.28
2022-08-21T21:41:11.742Z,101038.13
2022-08-21T21:44:00.968Z,101031.34
2022-08-21T21:46:46.134Z,101046.03
2022-08-21T21:49:38.841Z,101047.03
2022-08-21T21:52:18.447Z,101055.75
2022-08-21T21:55:06.015Z,101000.97
2022-08-21T21:58:03.539Z,101051.56
2022-08-21T22:00:36.587Z,101045.47
2022-08-21T22:03:14.147Z,101048.13
2022-08-21T22:06:00.356Z,101059.34
2022-08-21T22:08:42.887Z,101052.50
2022-08-21T22:11:29.605Z,101049.91
2022-08-21T22:14:06.302Z,100916.22
2022-08-21T22:16:38.872Z,101040.50
2022-08-21T22:19:16.546Z,101042.22
2022-08-21T22:21:52.867Z,101048.25
2022-08-21T22:24:28.271Z,101050.78
2022-08-21T22:27:03.289Z,101055.97
2022-08-21T22:29:48.292Z,101046.72
2022-08-21T22:32:26.105Z,101041.66
2022-08-21T22:35:12.635Z,101043.38
2022-08-21T22:37:45.978Z,101053.81
2022-08-21T22:43:23.087Z,101059.09
2022-08-21T22:46:00.715Z,101047.91
2022-08-21T22:48:36.156Z,101053.94
2022-08-21T22:51:10.258Z,101053.94
2022-08-21T22:53:44.123Z,101053.31
2022-08-21T22:56:31.763Z,101060.25
2022-08-21T22:59:10.427Z,101060.25
2022-08-21T23:01:45.499Z,101053.34
2022-08-21T23:04:24.483Z,101051.81
2022-08-21T23:06:59.401Z,101044.09
2022-08-21T23:09:38.646Z,101047.63
2022-08-21T23:12:32.952Z,101041.66
2022-08-21T23:15:11.513Z,101047.75
2022-08-21T23:17:50.328Z,101060.63
2022-08-21T23:20:25.979Z,101066.72
2022-08-21T23:23:10.757Z,101050.38
2022-08-21T23:26:00.266Z,101047.84
2022-08-21T23:28:46.583Z,101077.06
2022-08-21T23:31:29.738Z,101077.91
2022-08-21T23:37:18.881Z,101049.59
2022-08-21T23:40:06.412Z,101065.91
2022-08-21T23:43:05.472Z,101073.66
2022-08-21T23:45:48.842Z,101066.78
2022-08-21T23:48:34.048Z,101077.97
2022-08-21T23:51:13.393Z,101055.66
2022-08-21T23:53:59.058Z,101024.84
2022-08-21T23:56:44.753Z,101058.28
